DLH9XK EDDF-EDDM
Flight info
| Callsign | DLH9XK |
|---|---|
| Flight time | 0h 42m |
| Altitude | 23000 |
| Route | CINDY8S/18 CINDY Z74 HAREM T104 ROKIL ROKIL1B |
| Aircraft | A321/M-SDE2E3FGIJ1LORWXYZ/HB1 |
Departure
| Time | 2026-05-03 23:03 |
|---|---|
| Airport | Frankfurt Main Airport (EDDF) |
Arrival
| Time | 2026-05-03 23:45 |
|---|---|
| Airport | Munich Airport (EDDM) |
| Time | Latitude | Longitude | Altitude | Speed | Heading |
|---|---|---|---|---|---|
| 2026-05-03 22:31 | 50.04687 | 8.56701 | 364 ft | 0 kts | 115° |
| 2026-05-03 22:51 | 50.04689 | 8.56693 | 363 ft | 4 kts | 114° |
| 2026-05-03 22:52 | 50.04700 | 8.56654 | 361 ft | 4 kts | 115° |
| 2026-05-03 22:52 | 50.04709 | 8.56624 | 359 ft | 4 kts | 107° |
| 2026-05-03 22:52 | 50.04713 | 8.56583 | 356 ft | 4 kts | 82° |
| 2026-05-03 22:52 | 50.04705 | 8.56545 | 356 ft | 4 kts | 57° |
| 2026-05-03 22:53 | 50.04689 | 8.56512 | 365 ft | 4 kts | 52° |
| 2026-05-03 22:53 | 50.04678 | 8.56482 | 361 ft | 4 kts | 70° |
| 2026-05-03 22:53 | 50.04669 | 8.56443 | 363 ft | 4 kts | 70° |
| 2026-05-03 22:53 | 50.04659 | 8.56403 | 360 ft | 4 kts | 70° |
| 2026-05-03 22:54 | 50.04650 | 8.56364 | 363 ft | 4 kts | 70° |
| 2026-05-03 22:54 | 50.04641 | 8.56324 | 360 ft | 4 kts | 70° |
| 2026-05-03 22:54 | 50.04633 | 8.56290 | 359 ft | 1 kts | 70° |
| 2026-05-03 22:56 | 50.04634 | 8.56296 | 358 ft | 3 kts | 70° |
| 2026-05-03 22:57 | 50.04651 | 8.56366 | 363 ft | 9 kts | 70° |
| 2026-05-03 22:57 | 50.04643 | 8.56460 | 363 ft | 10 kts | 134° |
| 2026-05-03 22:57 | 50.04573 | 8.56456 | 356 ft | 12 kts | 202° |
| 2026-05-03 22:57 | 50.04513 | 8.56371 | 363 ft | 13 kts | 248° |
| 2026-05-03 22:58 | 50.04479 | 8.56228 | 362 ft | 15 kts | 250° |
| 2026-05-03 22:58 | 50.04445 | 8.56088 | 358 ft | 11 kts | 250° |
| 2026-05-03 22:58 | 50.04388 | 8.56029 | 356 ft | 11 kts | 168° |
| 2026-05-03 22:58 | 50.04305 | 8.56084 | 360 ft | 14 kts | 143° |
| 2026-05-03 22:59 | 50.04272 | 8.56220 | 364 ft | 14 kts | 143° |
| 2026-05-03 22:59 | 50.04173 | 8.56279 | 357 ft | 16 kts | 159° |
| 2026-05-03 22:59 | 50.04163 | 8.56431 | 358 ft | 17 kts | 69° |
| 2026-05-03 22:59 | 50.04205 | 8.56602 | 359 ft | 17 kts | 70° |
| 2026-05-03 23:00 | 50.04247 | 8.56780 | 362 ft | 18 kts | 70° |
| 2026-05-03 23:00 | 50.04290 | 8.56963 | 364 ft | 19 kts | 69° |
| 2026-05-03 23:00 | 50.04337 | 8.57158 | 361 ft | 20 kts | 70° |
| 2026-05-03 23:00 | 50.04386 | 8.57363 | 365 ft | 21 kts | 69° |
| 2026-05-03 23:01 | 50.04433 | 8.57571 | 366 ft | 13 kts | 87° |
| 2026-05-03 23:01 | 50.04379 | 8.57662 | 371 ft | 13 kts | 156° |
| 2026-05-03 23:01 | 50.04291 | 8.57710 | 364 ft | 6 kts | 161° |
| 2026-05-03 23:01 | 50.04270 | 8.57681 | 366 ft | 0 kts | 249° |
| 2026-05-03 23:02 | 50.04270 | 8.57679 | 365 ft | 1 kts | 249° |
| 2026-05-03 23:02 | 50.04253 | 8.57613 | 365 ft | 26 kts | 249° |
| 2026-05-03 23:02 | 50.04088 | 8.56919 | 364 ft | 108 kts | 250° |
| 2026-05-03 23:02 | 50.03746 | 8.55492 | 411 ft | 164 kts | 250° |
| 2026-05-03 23:03 | 50.03358 | 8.53846 | 1168 ft | 165 kts | 249° |
| 2026-05-03 23:03 | 50.02947 | 8.52125 | 1837 ft | 175 kts | 248° |
| 2026-05-03 23:03 | 50.02238 | 8.50573 | 2284 ft | 187 kts | 218° |
| 2026-05-03 23:03 | 50.01028 | 8.49674 | 2768 ft | 200 kts | 201° |
| 2026-05-03 23:04 | 49.99660 | 8.49043 | 3276 ft | 211 kts | 192° |
| 2026-05-03 23:04 | 49.98189 | 8.49493 | 3870 ft | 227 kts | 154° |
| 2026-05-03 23:04 | 49.97087 | 8.51341 | 4602 ft | 237 kts | 124° |
| 2026-05-03 23:04 | 49.96272 | 8.53534 | 5308 ft | 240 kts | 124° |
| 2026-05-03 23:05 | 49.95423 | 8.55890 | 5669 ft | 262 kts | 123° |
| 2026-05-03 23:05 | 49.94522 | 8.58487 | 6151 ft | 282 kts | 117° |
| 2026-05-03 23:05 | 49.94017 | 8.61491 | 6880 ft | 295 kts | 99° |
| 2026-05-03 23:05 | 49.93899 | 8.64692 | 7676 ft | 298 kts | 98° |
| 2026-05-03 23:06 | 49.93462 | 8.67809 | 8464 ft | 295 kts | 117° |
| 2026-05-03 23:06 | 49.92450 | 8.70528 | 9272 ft | 289 kts | 135° |
| 2026-05-03 23:06 | 49.90994 | 8.72625 | 10055 ft | 284 kts | 150° |
| 2026-05-03 23:06 | 49.89372 | 8.74517 | 10480 ft | 305 kts | 143° |
| 2026-05-03 23:07 | 49.87897 | 8.77076 | 10729 ft | 331 kts | 129° |
| 2026-05-03 23:07 | 49.86720 | 8.80222 | 11284 ft | 341 kts | 123° |
| 2026-05-03 23:07 | 49.85570 | 8.83464 | 11948 ft | 345 kts | 123° |
| 2026-05-03 23:07 | 49.84395 | 8.86732 | 12644 ft | 349 kts | 123° |
| 2026-05-03 23:08 | 49.83199 | 8.90028 | 13351 ft | 352 kts | 123° |
| 2026-05-03 23:08 | 49.81986 | 8.93348 | 14018 ft | 356 kts | 123° |
| 2026-05-03 23:08 | 49.80763 | 8.96699 | 14629 ft | 360 kts | 123° |
| 2026-05-03 23:08 | 49.79524 | 9.00086 | 15235 ft | 363 kts | 123° |
| 2026-05-03 23:09 | 49.78270 | 9.03509 | 15843 ft | 367 kts | 123° |
| 2026-05-03 23:09 | 49.77010 | 9.06965 | 16443 ft | 371 kts | 121° |
| 2026-05-03 23:09 | 49.76284 | 9.09370 | 16887 ft | 375 kts | 114° |
| 2026-05-03 23:09 | 49.75310 | 9.14593 | 17696 ft | 380 kts | 109° |
| 2026-05-03 23:10 | 49.74717 | 9.17140 | 18079 ft | 380 kts | 117° |
| 2026-05-03 23:10 | 49.73447 | 9.20716 | 18613 ft | 380 kts | 128° |
| 2026-05-03 23:10 | 49.71789 | 9.23886 | 19112 ft | 380 kts | 135° |
| 2026-05-03 23:10 | 49.70036 | 9.26965 | 19631 ft | 383 kts | 135° |
| 2026-05-03 23:11 | 49.68272 | 9.30072 | 20152 ft | 386 kts | 135° |
| 2026-05-03 23:11 | 49.66494 | 9.33209 | 20656 ft | 390 kts | 135° |
| 2026-05-03 23:11 | 49.64702 | 9.36369 | 21152 ft | 393 kts | 135° |
| 2026-05-03 23:11 | 49.62894 | 9.39554 | 21639 ft | 396 kts | 135° |
| 2026-05-03 23:12 | 49.61075 | 9.42759 | 22113 ft | 399 kts | 135° |
| 2026-05-03 23:12 | 49.59240 | 9.45993 | 22576 ft | 402 kts | 136° |
| 2026-05-03 23:12 | 49.57392 | 9.49245 | 22945 ft | 403 kts | 135° |
| 2026-05-03 23:12 | 49.55556 | 9.52478 | 23032 ft | 394 kts | 135° |
| 2026-05-03 23:13 | 49.53782 | 9.55604 | 23041 ft | 384 kts | 135° |
| 2026-05-03 23:13 | 49.52027 | 9.58683 | 23044 ft | 382 kts | 135° |
| 2026-05-03 23:13 | 49.50275 | 9.61746 | 23045 ft | 381 kts | 135° |
| 2026-05-03 23:13 | 49.48521 | 9.64805 | 23047 ft | 381 kts | 135° |
| 2026-05-03 23:14 | 49.46768 | 9.67859 | 23052 ft | 381 kts | 135° |
| 2026-05-03 23:14 | 49.45014 | 9.70914 | 23054 ft | 381 kts | 135° |
| 2026-05-03 23:14 | 49.43261 | 9.73962 | 23055 ft | 381 kts | 135° |
| 2026-05-03 23:14 | 49.41507 | 9.77006 | 23055 ft | 381 kts | 135° |
| 2026-05-03 23:15 | 49.39752 | 9.80047 | 23056 ft | 381 kts | 135° |
| 2026-05-03 23:15 | 49.37995 | 9.83092 | 23057 ft | 381 kts | 135° |
| 2026-05-03 23:15 | 49.36239 | 9.86134 | 23043 ft | 381 kts | 135° |
| 2026-05-03 23:15 | 49.34481 | 9.89175 | 23045 ft | 381 kts | 135° |
| 2026-05-03 23:16 | 49.32721 | 9.92217 | 23049 ft | 381 kts | 135° |
| 2026-05-03 23:16 | 49.30962 | 9.95253 | 23044 ft | 381 kts | 135° |
| 2026-05-03 23:16 | 49.29197 | 9.98288 | 23044 ft | 382 kts | 135° |
| 2026-05-03 23:16 | 49.27427 | 10.01325 | 23046 ft | 382 kts | 135° |
| 2026-05-03 23:17 | 49.25658 | 10.04357 | 23049 ft | 382 kts | 135° |
| 2026-05-03 23:17 | 49.23886 | 10.07388 | 23053 ft | 382 kts | 135° |
| 2026-05-03 23:17 | 49.22112 | 10.10421 | 23056 ft | 382 kts | 135° |
| 2026-05-03 23:17 | 49.20339 | 10.13452 | 23059 ft | 382 kts | 135° |
| 2026-05-03 23:18 | 49.18564 | 10.16484 | 23065 ft | 382 kts | 135° |
| 2026-05-03 23:18 | 49.16791 | 10.19512 | 23068 ft | 383 kts | 135° |
| 2026-05-03 23:18 | 49.15019 | 10.22543 | 23064 ft | 383 kts | 135° |
| 2026-05-03 23:18 | 49.13237 | 10.25570 | 23070 ft | 383 kts | 136° |
| 2026-05-03 23:19 | 49.11426 | 10.28544 | 23066 ft | 382 kts | 136° |
| 2026-05-03 23:19 | 49.09595 | 10.31483 | 23072 ft | 382 kts | 137° |
| 2026-05-03 23:19 | 49.07780 | 10.34369 | 23073 ft | 382 kts | 137° |
| 2026-05-03 23:19 | 49.05940 | 10.37288 | 23073 ft | 382 kts | 137° |
| 2026-05-03 23:20 | 49.04102 | 10.40202 | 23059 ft | 381 kts | 137° |
| 2026-05-03 23:20 | 49.02266 | 10.43124 | 23063 ft | 381 kts | 137° |
| 2026-05-03 23:20 | 49.00438 | 10.46049 | 23061 ft | 381 kts | 136° |
| 2026-05-03 23:20 | 48.98612 | 10.48977 | 23061 ft | 381 kts | 137° |
| 2026-05-03 23:21 | 48.96782 | 10.51903 | 23062 ft | 381 kts | 137° |
| 2026-05-03 23:21 | 48.94949 | 10.54821 | 23059 ft | 381 kts | 137° |
| 2026-05-03 23:21 | 48.93117 | 10.57734 | 23059 ft | 381 kts | 137° |
| 2026-05-03 23:21 | 48.91285 | 10.60650 | 23052 ft | 381 kts | 137° |
| 2026-05-03 23:22 | 48.87617 | 10.66477 | 23064 ft | 382 kts | 137° |
| 2026-05-03 23:22 | 48.85778 | 10.69388 | 23066 ft | 382 kts | 137° |
| 2026-05-03 23:22 | 48.83937 | 10.72293 | 23068 ft | 382 kts | 137° |
| 2026-05-03 23:23 | 48.82097 | 10.75198 | 23059 ft | 382 kts | 137° |
| 2026-05-03 23:23 | 48.80256 | 10.78106 | 23060 ft | 382 kts | 137° |
| 2026-05-03 23:23 | 48.78416 | 10.81005 | 23052 ft | 382 kts | 136° |
| 2026-05-03 23:23 | 48.76572 | 10.83901 | 23052 ft | 381 kts | 137° |
| 2026-05-03 23:24 | 48.74730 | 10.86790 | 23047 ft | 381 kts | 137° |
| 2026-05-03 23:24 | 48.72885 | 10.89682 | 23046 ft | 381 kts | 137° |
| 2026-05-03 23:24 | 48.71040 | 10.92566 | 23047 ft | 381 kts | 137° |
| 2026-05-03 23:24 | 48.69193 | 10.95447 | 23037 ft | 381 kts | 136° |
| 2026-05-03 23:25 | 48.67344 | 10.98331 | 23042 ft | 381 kts | 136° |
| 2026-05-03 23:25 | 48.65497 | 11.01208 | 23041 ft | 381 kts | 136° |
| 2026-05-03 23:25 | 48.63645 | 11.04083 | 23040 ft | 381 kts | 136° |
| 2026-05-03 23:25 | 48.61794 | 11.06952 | 23041 ft | 381 kts | 136° |
| 2026-05-03 23:26 | 48.59951 | 11.09810 | 22899 ft | 376 kts | 136° |
| 2026-05-03 23:26 | 48.58124 | 11.12546 | 22630 ft | 365 kts | 142° |
| 2026-05-03 23:26 | 48.56110 | 11.14809 | 22364 ft | 359 kts | 148° |
| 2026-05-03 23:26 | 48.54045 | 11.16903 | 22100 ft | 357 kts | 148° |
| 2026-05-03 23:27 | 48.51992 | 11.18992 | 21832 ft | 355 kts | 147° |
| 2026-05-03 23:27 | 48.50101 | 11.21316 | 21607 ft | 356 kts | 140° |
| 2026-05-03 23:27 | 48.48242 | 11.23839 | 21331 ft | 354 kts | 140° |
| 2026-05-03 23:27 | 48.46448 | 11.26268 | 21028 ft | 348 kts | 140° |
| 2026-05-03 23:28 | 48.44670 | 11.28707 | 20615 ft | 344 kts | 136° |
| 2026-05-03 23:28 | 48.43210 | 11.31552 | 20198 ft | 343 kts | 122° |
| 2026-05-03 23:28 | 48.42270 | 11.34842 | 19777 ft | 343 kts | 107° |
| 2026-05-03 23:28 | 48.41905 | 11.38368 | 19372 ft | 341 kts | 92° |
| 2026-05-03 23:29 | 48.42080 | 11.41920 | 18964 ft | 340 kts | 84° |
| 2026-05-03 23:29 | 48.42372 | 11.45433 | 18558 ft | 337 kts | 84° |
| 2026-05-03 23:29 | 48.42652 | 11.48925 | 18136 ft | 335 kts | 84° |
| 2026-05-03 23:29 | 48.42924 | 11.52383 | 17719 ft | 331 kts | 85° |
| 2026-05-03 23:30 | 48.43190 | 11.55803 | 17319 ft | 327 kts | 85° |
| 2026-05-03 23:30 | 48.43451 | 11.59181 | 16922 ft | 323 kts | 85° |
| 2026-05-03 23:30 | 48.43712 | 11.62520 | 16542 ft | 320 kts | 85° |
| 2026-05-03 23:30 | 48.43971 | 11.65829 | 16158 ft | 317 kts | 85° |
| 2026-05-03 23:31 | 48.44226 | 11.69114 | 15783 ft | 314 kts | 85° |
| 2026-05-03 23:31 | 48.44475 | 11.72365 | 15390 ft | 312 kts | 86° |
| 2026-05-03 23:31 | 48.44722 | 11.75591 | 15025 ft | 309 kts | 86° |
| 2026-05-03 23:31 | 48.44968 | 11.78797 | 14653 ft | 307 kts | 86° |
| 2026-05-03 23:32 | 48.45211 | 11.81977 | 14281 ft | 305 kts | 86° |
| 2026-05-03 23:32 | 48.45454 | 11.85141 | 13913 ft | 303 kts | 86° |
| 2026-05-03 23:32 | 48.45695 | 11.88291 | 13516 ft | 302 kts | 86° |
| 2026-05-03 23:32 | 48.45933 | 11.91413 | 13144 ft | 299 kts | 86° |
| 2026-05-03 23:33 | 48.46169 | 11.94508 | 12783 ft | 296 kts | 86° |
| 2026-05-03 23:33 | 48.46401 | 11.97568 | 12416 ft | 293 kts | 86° |
| 2026-05-03 23:33 | 48.46630 | 12.00608 | 12056 ft | 290 kts | 86° |
| 2026-05-03 23:33 | 48.46854 | 12.03618 | 11700 ft | 288 kts | 87° |
| 2026-05-03 23:34 | 48.47075 | 12.06608 | 11345 ft | 286 kts | 87° |
| 2026-05-03 23:34 | 48.47291 | 12.09578 | 10990 ft | 284 kts | 87° |
| 2026-05-03 23:34 | 48.47506 | 12.12526 | 10637 ft | 282 kts | 87° |
| 2026-05-03 23:34 | 48.47721 | 12.15460 | 10284 ft | 281 kts | 87° |
| 2026-05-03 23:35 | 48.47931 | 12.18335 | 9930 ft | 279 kts | 86° |
| 2026-05-03 23:35 | 48.48147 | 12.21265 | 9543 ft | 276 kts | 85° |
| 2026-05-03 23:35 | 48.48354 | 12.24092 | 9206 ft | 274 kts | 85° |
| 2026-05-03 23:35 | 48.48562 | 12.26935 | 8741 ft | 275 kts | 84° |
| 2026-05-03 23:36 | 48.48777 | 12.29866 | 7999 ft | 288 kts | 85° |
| 2026-05-03 23:36 | 48.48536 | 12.32836 | 7633 ft | 285 kts | 111° |
| 2026-05-03 23:36 | 48.47449 | 12.35287 | 7379 ft | 282 kts | 139° |
| 2026-05-03 23:36 | 48.45782 | 12.36695 | 7137 ft | 272 kts | 167° |
| 2026-05-03 23:37 | 48.43942 | 12.37172 | 6896 ft | 265 kts | 179° |
| 2026-05-03 23:37 | 48.42176 | 12.36686 | 6650 ft | 256 kts | 209° |
| 2026-05-03 23:37 | 48.40899 | 12.34967 | 6413 ft | 244 kts | 241° |
| 2026-05-03 23:37 | 48.40400 | 12.32603 | 6165 ft | 235 kts | 265° |
| 2026-05-03 23:38 | 48.40230 | 12.30172 | 6009 ft | 231 kts | 266° |
| 2026-05-03 23:38 | 48.40072 | 12.27842 | 5881 ft | 217 kts | 265° |
| 2026-05-03 23:38 | 48.39914 | 12.25620 | 5752 ft | 212 kts | 266° |
| 2026-05-03 23:38 | 48.39756 | 12.23427 | 5628 ft | 210 kts | 265° |
| 2026-05-03 23:39 | 48.39597 | 12.21246 | 5506 ft | 209 kts | 266° |
| 2026-05-03 23:39 | 48.39439 | 12.19074 | 5377 ft | 208 kts | 265° |
| 2026-05-03 23:39 | 48.39282 | 12.16911 | 5262 ft | 208 kts | 266° |
| 2026-05-03 23:39 | 48.39124 | 12.14757 | 5142 ft | 207 kts | 266° |
| 2026-05-03 23:40 | 48.38967 | 12.12612 | 5056 ft | 206 kts | 264° |
| 2026-05-03 23:40 | 48.38811 | 12.10484 | 4999 ft | 201 kts | 264° |
| 2026-05-03 23:40 | 48.38662 | 12.08474 | 4845 ft | 187 kts | 264° |
| 2026-05-03 23:40 | 48.38522 | 12.06586 | 4618 ft | 177 kts | 264° |
| 2026-05-03 23:41 | 48.38389 | 12.04787 | 4388 ft | 170 kts | 265° |
| 2026-05-03 23:41 | 48.38260 | 12.03054 | 4170 ft | 164 kts | 265° |
| 2026-05-03 23:41 | 48.38135 | 12.01369 | 3955 ft | 160 kts | 266° |
| 2026-05-03 23:41 | 48.38012 | 11.99725 | 3745 ft | 155 kts | 267° |
| 2026-05-03 23:42 | 48.37896 | 11.98167 | 3562 ft | 148 kts | 268° |
| 2026-05-03 23:42 | 48.37783 | 11.96670 | 3364 ft | 140 kts | 269° |
| 2026-05-03 23:42 | 48.37676 | 11.95229 | 3181 ft | 137 kts | 269° |
| 2026-05-03 23:42 | 48.37571 | 11.93825 | 3003 ft | 137 kts | 270° |
| 2026-05-03 23:43 | 48.37463 | 11.92385 | 2821 ft | 136 kts | 269° |
| 2026-05-03 23:43 | 48.37358 | 11.90999 | 2648 ft | 134 kts | 271° |
| 2026-05-03 23:43 | 48.37254 | 11.89609 | 2468 ft | 134 kts | 268° |
| 2026-05-03 23:43 | 48.37147 | 11.88195 | 2285 ft | 134 kts | 266° |
| 2026-05-03 23:44 | 48.37042 | 11.86806 | 2108 ft | 136 kts | 265° |
| 2026-05-03 23:44 | 48.36935 | 11.85384 | 1937 ft | 137 kts | 264° |
| 2026-05-03 23:44 | 48.36827 | 11.83958 | 1767 ft | 137 kts | 264° |
| 2026-05-03 23:44 | 48.36714 | 11.82530 | 1597 ft | 137 kts | 264° |
| 2026-05-03 23:45 | 48.36609 | 11.81137 | 1484 ft | 125 kts | 264° |
| 2026-05-03 23:45 | 48.36531 | 11.80067 | 1485 ft | 54 kts | 263° |
| 2026-05-03 23:45 | 48.36462 | 11.79724 | 1473 ft | 32 kts | 239° |
| 2026-05-03 23:45 | 48.36354 | 11.79505 | 1479 ft | 24 kts | 233° |
| 2026-05-03 23:46 | 48.36263 | 11.79329 | 1481 ft | 20 kts | 223° |
| 2026-05-03 23:46 | 48.36135 | 11.79309 | 1472 ft | 19 kts | 176° |
| 2026-05-03 23:46 | 48.35994 | 11.79333 | 1481 ft | 21 kts | 173° |
| 2026-05-03 23:46 | 48.35877 | 11.79381 | 1477 ft | 17 kts | 173° |
| 2026-05-03 23:47 | 48.35769 | 11.79399 | 1478 ft | 9 kts | 174° |
| 2026-05-03 23:47 | 48.35696 | 11.79411 | 1482 ft | 12 kts | 173° |
| 2026-05-03 23:47 | 48.35653 | 11.79388 | 1476 ft | 6 kts | 244° |
| 2026-05-03 23:47 | 48.35647 | 11.79317 | 1475 ft | 8 kts | 263° |
| 2026-05-03 23:48 | 48.35644 | 11.79280 | 1475 ft | 3 kts | 263° |
| 2026-05-03 23:48 | 48.35643 | 11.79276 | 1476 ft | 0 kts | 263° |